Time;durP1;ratioP1;P1;durP2;ratioP2;P2;SDS_P1;SDS_P2;PMS_P1;PMS_P2;Temp;Humidity;BMP_temperature;BMP_pressure;BME280_temperature;BME280_humidity;BME280_pressure;Samples;Min_cycle;Max_cycle;Signal;HPM_P1;HPM_P2
2022/07/21 00:02:06;;;;;;;;;;;20.80;90.30;;;;;;5014238;28;19921;-73
2022/07/21 00:04:34;;;;;;;;;;;20.70;90.20;;;;;;4981939;28;19921;-73
2022/07/21 00:07:02;;;;;;;;;;;20.70;90.10;;;;;;5013843;28;19932;-73
2022/07/21 00:09:30;;;;;;;;;;;20.80;89.70;;;;;;5016545;28;19921;-74
2022/07/21 00:11:57;;;;;;;;;;;20.80;89.20;;;;;;5018859;28;19929;-73
2022/07/21 00:14:25;;;;;;;;;;;20.80;88.90;;;;;;5000521;28;19928;-73
2022/07/21 00:16:52;;;;;;;;;;;20.80;88.90;;;;;;5001572;28;19928;-73
2022/07/21 00:19:20;;;;;;;;;;;20.80;89.20;;;;;;5018635;28;19921;-73
2022/07/21 00:21:47;;;;;;;;;;;20.70;88.70;;;;;;5017496;28;20370;-73
2022/07/21 00:24:15;;;;;;;;;;;20.70;88.90;;;;;;5018738;28;19921;-73
2022/07/21 00:26:42;;;;;;;;;;;20.70;89.00;;;;;;5001468;28;20382;-73
2022/07/21 00:29:10;;;;;;;;;;;20.70;89.20;;;;;;5033034;28;19928;-73
2022/07/21 00:31:37;;;;;;;;;;;20.70;90.00;;;;;;5001290;28;19944;-73
2022/07/21 00:34:05;;;;;;;;;;;20.60;89.80;;;;;;5017378;28;20278;-73
2022/07/21 00:36:32;;;;;;;;;;;20.50;90.00;;;;;;5001224;28;19921;-73
2022/07/21 00:39:00;;;;;;;;;;;20.30;90.70;;;;;;5031654;28;19921;-73
2022/07/21 00:41:27;;;;;;;;;;;20.20;91.00;;;;;;5036854;28;19928;-73
2022/07/21 00:43:56;;;;;;;;;;;20.00;91.40;;;;;;5037834;28;19971;-73
2022/07/21 00:46:23;;;;;;;;;;;19.90;92.30;;;;;;5053872;28;19921;-73
2022/07/21 00:48:51;;;;;;;;;;;19.80;92.40;;;;;;5052528;28;20359;-73
2022/07/21 00:51:19;;;;;;;;;;;19.60;92.90;;;;;;5037505;28;19932;-73
2022/07/21 00:53:46;;;;;;;;;;;19.10;92.60;;;;;;5036945;28;19921;-73
2022/07/21 00:56:14;;;;;;;;;;;19.40;93.20;;;;;;5036780;28;19929;-73
2022/07/21 00:58:42;;;;;;;;;;;19.40;93.30;;;;;;5037606;28;19925;-73
2022/07/21 01:01:09;;;;;;;;;;;19.40;93.30;;;;;;5036406;28;19936;-73
2022/07/21 01:03:37;;;;;;;;;;;19.30;93.30;;;;;;5054101;28;19921;-73
2022/07/21 01:06:05;;;;;;;;;;;19.10;93.50;;;;;;5037514;28;19928;-73
2022/07/21 01:08:32;;;;;;;;;;;19.20;93.70;;;;;;5036635;28;19931;-73
2022/07/21 01:11:00;;;;;;;;;;;19.20;93.80;;;;;;5053072;28;19921;-73
2022/07/21 01:13:27;;;;;;;;;;;19.20;93.60;;;;;;5037663;28;19921;-74
2022/07/21 01:15:55;;;;;;;;;;;19.20;93.10;;;;;;5036106;28;19921;-74
2022/07/21 01:18:23;;;;;;;;;;;19.20;93.30;;;;;;5036452;28;20271;-74
2022/07/21 01:20:51;;;;;;;;;;;19.10;93.50;;;;;;5035567;28;19984;-74
2022/07/21 01:23:20;;;;;;;;;;;19.10;93.20;;;;;;5036375;28;19921;-73
2022/07/21 01:25:48;;;;;;;;;;;19.10;93.40;;;;;;5036359;28;19928;-74
2022/07/21 01:28:15;;;;;;;;;;;19.20;93.40;;;;;;5035075;28;19921;-73
2022/07/21 01:30:43;;;;;;;;;;;19.20;93.20;;;;;;5037219;28;19921;-74
2022/07/21 01:33:10;;;;;;;;;;;19.20;93.30;;;;;;5036965;28;19928;-74
2022/07/21 01:35:38;;;;;;;;;;;19.30;92.80;;;;;;5035990;28;19921;-73
2022/07/21 01:41:28;;;;;;;;;;;19.30;92.70;;;;;;5027210;28;19921;-74
2022/07/21 01:43:45;;;;;;;;;;;19.30;92.30;;;;;;5017071;28;20233;-73
2022/07/21 01:46:12;;;;;;;;;;;19.30;92.40;;;;;;5017302;28;19925;-73
2022/07/21 01:48:41;;;;;;;;;;;19.40;92.00;;;;;;4998709;28;20383;-74
2022/07/21 01:51:09;;;;;;;;;;;19.30;91.70;;;;;;4999628;28;20232;-73
2022/07/21 01:53:36;;;;;;;;;;;19.50;91.60;;;;;;5033035;28;19921;-73
2022/07/21 01:56:04;;;;;;;;;;;19.30;91.40;;;;;;5016032;28;19922;-73
2022/07/21 01:58:32;;;;;;;;;;;19.30;91.30;;;;;;5016807;28;19921;-73
2022/07/21 02:00:59;;;;;;;;;;;19.30;91.00;;;;;;4982406;28;19921;-73
2022/07/21 02:03:27;;;;;;;;;;;19.30;91.20;;;;;;4983485;28;19932;-73
2022/07/21 02:06:00;;;;;;;;;;;19.40;90.90;;;;;;4999513;28;20387;-73
2022/07/21 02:08:27;;;;;;;;;;;19.70;90.80;;;;;;5015704;28;19932;-73
2022/07/21 02:10:55;;;;;;;;;;;19.50;91.20;;;;;;4999478;28;19921;-73
2022/07/21 02:13:22;;;;;;;;;;;19.40;91.70;;;;;;5016926;28;19937;-73
2022/07/21 02:15:50;;;;;;;;;;;19.30;91.60;;;;;;4998449;28;19928;-73
2022/07/21 02:18:17;;;;;;;;;;;19.20;91.20;;;;;;4999317;28;19932;-73
2022/07/21 02:20:47;;;;;;;;;;;19.10;91.60;;;;;;5015491;28;19921;-73
2022/07/21 02:23:14;;;;;;;;;;;19.10;91.80;;;;;;5016480;28;19921;-73
2022/07/21 02:25:42;;;;;;;;;;;19.10;91.30;;;;;;5031973;28;19921;-73
2022/07/21 02:28:10;;;;;;;;;;;19.10;91.40;;;;;;5015360;28;20347;-73
2022/07/21 02:30:38;;;;;;;;;;;19.00;91.30;;;;;;4998918;28;19921;-73
2022/07/21 02:33:05;;;;;;;;;;;19.00;91.10;;;;;;4998356;28;20260;-73
2022/07/21 02:35:33;;;;;;;;;;;19.10;91.20;;;;;;5015159;28;19925;-73
2022/07/21 02:38:01;;;;;;;;;;;19.00;91.10;;;;;;5016440;28;19921;-73
2022/07/21 02:40:28;;;;;;;;;;;19.10;91.10;;;;;;5015034;28;20291;-73
2022/07/21 02:42:56;;;;;;;;;;;19.10;91.00;;;;;;4998887;28;19928;-73
2022/07/21 02:45:24;;;;;;;;;;;19.20;90.80;;;;;;5016097;28;19928;-73
2022/07/21 02:47:53;;;;;;;;;;;19.20;90.70;;;;;;5014806;28;19921;-73
2022/07/21 02:50:21;;;;;;;;;;;19.30;90.60;;;;;;5031815;28;19921;-73
2022/07/21 02:52:49;;;;;;;;;;;19.30;90.50;;;;;;5031519;28;19922;-73
2022/07/21 02:55:16;;;;;;;;;;;19.30;90.60;;;;;;5014692;28;19922;-74
2022/07/21 02:57:44;;;;;;;;;;;19.30;90.60;;;;;;5015822;28;19921;-73
2022/07/21 03:00:11;;;;;;;;;;;19.30;90.60;;;;;;4998471;28;20287;-73
2022/07/21 03:02:39;;;;;;;;;;;19.30;90.50;;;;;;4997419;28;19922;-73
2022/07/21 03:05:06;;;;;;;;;;;19.30;90.40;;;;;;5016200;28;19922;-73
2022/07/21 03:07:34;;;;;;;;;;;19.20;90.30;;;;;;5030242;28;20271;-73
2022/07/21 03:10:01;;;;;;;;;;;19.30;90.20;;;;;;5015818;28;20007;-73
2022/07/21 03:12:29;;;;;;;;;;;19.20;90.20;;;;;;5015402;28;19928;-73
2022/07/21 03:14:56;;;;;;;;;;;19.20;90.30;;;;;;4981627;28;19933;-73
2022/07/21 03:17:24;;;;;;;;;;;19.20;90.40;;;;;;5015356;28;19925;-74
2022/07/21 03:19:51;;;;;;;;;;;19.10;90.50;;;;;;5015777;28;19921;-73
2022/07/21 03:22:18;;;;;;;;;;;19.20;90.70;;;;;;4997346;28;20271;-73
2022/07/21 03:24:50;;;;;;;;;;;19.20;90.80;;;;;;4998491;28;19933;-73
2022/07/21 03:27:18;;;;;;;;;;;19.20;90.80;;;;;;4997203;28;19921;-73
2022/07/21 03:29:45;;;;;;;;;;;19.20;90.90;;;;;;4982156;28;20352;-73
2022/07/21 03:32:13;;;;;;;;;;;19.20;90.90;;;;;;5015422;28;19921;-73
2022/07/21 03:34:40;;;;;;;;;;;19.20;90.80;;;;;;5014219;28;20279;-73
2022/07/21 03:37:07;;;;;;;;;;;19.20;90.80;;;;;;5015098;28;20233;-74
2022/07/21 03:39:35;;;;;;;;;;;19.30;90.70;;;;;;5030819;28;19922;-73
2022/07/21 03:42:02;;;;;;;;;;;19.30;90.70;;;;;;5014178;28;19921;-73
2022/07/21 03:44:30;;;;;;;;;;;19.30;90.60;;;;;;5002025;28;19932;-73
2022/07/21 03:46:59;;;;;;;;;;;19.30;90.60;;;;;;4985790;28;19921;-74
2022/07/21 03:49:26;;;;;;;;;;;19.30;90.40;;;;;;5019551;28;19928;-74
2022/07/21 03:51:54;;;;;;;;;;;19.20;90.40;;;;;;5002237;28;20344;-73
2022/07/21 03:54:21;;;;;;;;;;;19.20;90.50;;;;;;5017975;28;19921;-74
2022/07/21 03:56:49;;;;;;;;;;;19.20;90.50;;;;;;5018943;28;19925;-73
2022/07/21 03:59:17;;;;;;;;;;;19.20;90.40;;;;;;5018960;28;19922;-73
2022/07/21 04:01:44;;;;;;;;;;;19.10;90.50;;;;;;5017906;28;19929;-73
2022/07/21 04:04:12;;;;;;;;;;;19.10;90.80;;;;;;5002053;28;19932;-73
2022/07/21 04:06:39;;;;;;;;;;;19.10;90.60;;;;;;5019006;28;19928;-73
2022/07/21 04:09:06;;;;;;;;;;;19.10;90.60;;;;;;5017882;28;19921;-73
2022/07/21 04:11:34;;;;;;;;;;;19.10;90.60;;;;;;5034358;28;19933;-73
2022/07/21 04:14:01;;;;;;;;;;;19.00;90.70;;;;;;5017808;28;19940;-73
2022/07/21 04:16:29;;;;;;;;;;;19.00;90.80;;;;;;5001304;28;19932;-73
2022/07/21 04:18:56;;;;;;;;;;;19.00;90.80;;;;;;5018634;28;20367;-73
2022/07/21 04:21:24;;;;;;;;;;;18.90;90.80;;;;;;5017438;28;19925;-73
2022/07/21 04:23:51;;;;;;;;;;;18.90;90.80;;;;;;5018930;28;19921;-73
2022/07/21 04:26:18;;;;;;;;;;;18.90;90.80;;;;;;5018784;28;19933;-73
2022/07/21 04:28:46;;;;;;;;;;;18.90;90.70;;;;;;5017474;28;19937;-73
2022/07/21 04:31:13;;;;;;;;;;;19.00;90.70;;;;;;5018374;28;19932;-73
2022/07/21 04:33:40;;;;;;;;;;;19.00;90.60;;;;;;5000015;28;20351;-73
2022/07/21 04:36:08;;;;;;;;;;;19.00;90.60;;;;;;4985160;28;19932;-74
2022/07/21 04:38:35;;;;;;;;;;;19.00;90.50;;;;;;5024899;28;19921;-74
2022/07/21 04:41:03;;;;;;;;;;;19.00;90.50;;;;;;5036047;28;19927;-73
2022/07/21 04:43:30;;;;;;;;;;;19.00;90.50;;;;;;5038402;28;19928;-74
2022/07/21 04:45:58;;;;;;;;;;;19.00;90.80;;;;;;5037894;28;19921;-73
2022/07/21 04:48:26;;;;;;;;;;;19.00;90.50;;;;;;5035918;28;19925;-73
2022/07/21 04:50:54;;;;;;;;;;;19.20;90.60;;;;;;5020631;28;20235;-73
2022/07/21 04:53:22;;;;;;;;;;;19.00;90.40;;;;;;5037415;28;19921;-74
2022/07/21 04:55:49;;;;;;;;;;;19.00;90.50;;;;;;5035286;28;19932;-73
2022/07/21 04:58:17;;;;;;;;;;;19.00;90.40;;;;;;5037706;28;19928;-73
2022/07/21 05:00:44;;;;;;;;;;;19.10;90.40;;;;;;5035759;28;19921;-73
2022/07/21 05:03:13;;;;;;;;;;;19.10;90.30;;;;;;5037601;28;20224;-73
2022/07/21 05:05:40;;;;;;;;;;;19.10;90.40;;;;;;5037542;28;19921;-73
2022/07/21 05:08:08;;;;;;;;;;;19.10;90.30;;;;;;5036803;28;19928;-73
2022/07/21 05:10:35;;;;;;;;;;;19.10;90.30;;;;;;5037670;28;19921;-73
2022/07/21 05:13:03;;;;;;;;;;;19.00;90.20;;;;;;5036952;28;19921;-73
2022/07/21 05:15:31;;;;;;;;;;;19.10;90.20;;;;;;5036328;28;19921;-73
2022/07/21 05:17:58;;;;;;;;;;;19.20;90.10;;;;;;5036844;28;19921;-73
2022/07/21 05:20:25;;;;;;;;;;;19.10;90.20;;;;;;5036469;28;19928;-73
2022/07/21 05:22:53;;;;;;;;;;;19.10;90.10;;;;;;5036788;28;20518;-73
2022/07/21 05:25:20;;;;;;;;;;;19.10;90.20;;;;;;5037179;28;19928;-73
2022/07/21 05:27:48;;;;;;;;;;;19.10;90.10;;;;;;5035152;28;19928;-73
2022/07/21 05:30:15;;;;;;;;;;;19.10;90.10;;;;;;5037059;28;19927;-73
2022/07/21 05:32:43;;;;;;;;;;;19.10;90.20;;;;;;5037170;28;19928;-73
2022/07/21 05:35:15;;;;;;;;;;;19.10;90.10;;;;;;5019710;28;19932;-73
2022/07/21 05:37:42;;;;;;;;;;;19.10;90.20;;;;;;5030440;28;19922;-73
2022/07/21 05:40:10;;;;;;;;;;;19.10;90.10;;;;;;4983642;28;20354;-73
2022/07/21 05:42:39;;;;;;;;;;;19.10;90.10;;;;;;4998650;28;19933;-73
2022/07/21 05:45:07;;;;;;;;;;;19.10;90.00;;;;;;5017532;28;19928;-73
2022/07/21 05:47:34;;;;;;;;;;;19.10;90.00;;;;;;5015760;28;19929;-73
2022/07/21 05:50:02;;;;;;;;;;;19.20;90.00;;;;;;5016870;28;19928;-73
2022/07/21 05:52:29;;;;;;;;;;;19.20;90.00;;;;;;5016835;28;19928;-74
2022/07/21 05:54:57;;;;;;;;;;;19.30;89.90;;;;;;5015787;28;19928;-73
2022/07/21 05:57:24;;;;;;;;;;;19.30;90.00;;;;;;4983426;28;19936;-73
2022/07/21 05:59:52;;;;;;;;;;;19.40;90.00;;;;;;5032219;28;20279;-73
2022/07/21 06:02:19;;;;;;;;;;;19.40;89.50;;;;;;5015754;28;19944;-73
2022/07/21 06:04:47;;;;;;;;;;;19.40;89.60;;;;;;4999976;28;19922;-73
2022/07/21 06:07:14;;;;;;;;;;;19.50;89.20;;;;;;4997750;28;19922;-73
2022/07/21 06:09:42;;;;;;;;;;;19.50;89.00;;;;;;5016579;28;20252;-73
2022/07/21 06:12:09;;;;;;;;;;;19.60;88.80;;;;;;4999178;28;19921;-74
2022/07/21 06:14:37;;;;;;;;;;;19.40;88.80;;;;;;4998213;28;19921;-74
2022/07/21 06:17:04;;;;;;;;;;;19.50;88.80;;;;;;5016735;28;19929;-74
2022/07/21 06:19:32;;;;;;;;;;;19.50;88.60;;;;;;5031892;28;19921;-74
2022/07/21 06:21:59;;;;;;;;;;;19.50;88.50;;;;;;5015128;28;19921;-74
2022/07/21 06:24:28;;;;;;;;;;;19.50;88.30;;;;;;4999096;28;19932;-74
2022/07/21 06:26:55;;;;;;;;;;;19.60;88.50;;;;;;4999370;28;19921;-74
2022/07/21 06:29:29;;;;;;;;;;;19.70;88.20;;;;;;5016390;28;19921;-74
2022/07/21 06:31:57;;;;;;;;;;;19.70;88.10;;;;;;5031768;28;19921;-74
2022/07/21 06:34:24;;;;;;;;;;;19.80;88.60;;;;;;5014937;28;19933;-74
2022/07/21 06:36:51;;;;;;;;;;;19.90;88.30;;;;;;5016030;28;19921;-74
2022/07/21 06:39:19;;;;;;;;;;;20.00;87.70;;;;;;5016822;28;19929;-74
2022/07/21 06:41:47;;;;;;;;;;;20.10;87.40;;;;;;4997773;28;19928;-74
2022/07/21 06:44:14;;;;;;;;;;;20.10;87.30;;;;;;5016257;28;19932;-74
2022/07/21 06:46:41;;;;;;;;;;;20.00;87.10;;;;;;5015840;28;19922;-74
2022/07/21 06:49:09;;;;;;;;;;;20.10;87.40;;;;;;5014723;28;19928;-74
2022/07/21 06:51:36;;;;;;;;;;;20.10;87.30;;;;;;4999267;28;19922;-74
2022/07/21 06:54:04;;;;;;;;;;;20.10;87.20;;;;;;4997962;28;19925;-74
2022/07/21 06:56:33;;;;;;;;;;;20.10;87.20;;;;;;5015783;28;19932;-74
2022/07/21 06:59:00;;;;;;;;;;;20.10;87.30;;;;;;5015832;28;19921;-74
2022/07/21 07:01:27;;;;;;;;;;;20.10;87.40;;;;;;4981306;28;20364;-74
2022/07/21 07:03:58;;;;;;;;;;;20.30;88.00;;;;;;4997906;28;19925;-76
2022/07/21 07:06:25;;;;;;;;;;;20.00;88.50;;;;;;4997952;28;19922;-76
2022/07/21 07:08:52;;;;;;;;;;;20.00;87.90;;;;;;4997325;28;19932;-75
2022/07/21 07:11:21;;;;;;;;;;;20.00;87.90;;;;;;4982443;28;19921;-76
2022/07/21 07:13:48;;;;;;;;;;;20.00;88.00;;;;;;4997159;28;19925;-73
2022/07/21 07:16:25;;;;;;;;;;;20.00;88.20;;;;;;5015231;28;19929;-73
2022/07/21 07:18:53;;;;;;;;;;;20.00;88.00;;;;;;4997611;28;19921;-73
2022/07/21 07:21:21;;;;;;;;;;;20.00;88.10;;;;;;5014075;28;19921;-76
2022/07/21 07:23:49;;;;;;;;;;;20.10;88.00;;;;;;4981791;28;19948;-77
2022/07/21 07:26:16;;;;;;;;;;;20.20;88.00;;;;;;5015092;28;20348;-77
2022/07/21 07:28:44;;;;;;;;;;;20.20;87.70;;;;;;5013977;28;19928;-73
2022/07/21 07:31:11;;;;;;;;;;;20.20;87.50;;;;;;5014853;28;19921;-74
2022/07/21 07:33:39;;;;;;;;;;;20.30;87.90;;;;;;5014829;28;19921;-75
2022/07/21 07:36:10;;;;;;;;;;;20.30;87.80;;;;;;5010014;28;19921;-73
2022/07/21 07:38:38;;;;;;;;;;;20.40;87.40;;;;;;5013228;28;19921;-72
2022/07/21 07:41:06;;;;;;;;;;;20.40;87.70;;;;;;5016741;28;19928;-72
2022/07/21 07:43:33;;;;;;;;;;;21.90;88.10;;;;;;5034796;28;19921;-72
2022/07/21 07:46:01;;;;;;;;;;;20.50;87.10;;;;;;5023861;28;20380;-73
2022/07/21 07:48:31;;;;;;;;;;;20.50;86.90;;;;;;5012756;28;19921;-73
2022/07/21 07:50:58;;;;;;;;;;;20.50;87.00;;;;;;5015168;28;19928;-73
2022/07/21 07:53:25;;;;;;;;;;;20.50;86.80;;;;;;5013853;28;19925;-73
2022/07/21 07:55:53;;;;;;;;;;;20.60;87.30;;;;;;5008357;28;19921;-73
2022/07/21 07:58:20;;;;;;;;;;;20.70;87.00;;;;;;5034720;28;19921;-73
2022/07/21 08:00:48;;;;;;;;;;;20.70;86.40;;;;;;5030649;28;19921;-73
2022/07/21 08:03:22;;;;;;;;;;;20.80;86.60;;;;;;5001508;28;19932;-73
2022/07/21 08:05:50;;;;;;;;;;;20.90;86.30;;;;;;5034913;28;20340;-73
2022/07/21 08:08:17;;;;;;;;;;;21.00;85.90;;;;;;5016100;28;19921;-73
2022/07/21 08:10:47;;;;;;;;;;;21.10;85.60;;;;;;5034584;28;19929;-73
2022/07/21 08:13:16;;;;;;;;;;;21.20;85.30;;;;;;5017870;28;19947;-74
2022/07/21 08:15:44;;;;;;;;;;;21.40;85.00;;;;;;5033487;28;19921;-73
2022/07/21 08:18:11;;;;;;;;;;;21.50;84.20;;;;;;5017294;28;19947;-73
2022/07/21 08:20:39;;;;;;;;;;;21.50;84.50;;;;;;5016153;28;20197;-73
2022/07/21 08:23:07;;;;;;;;;;;21.60;84.30;;;;;;5017342;28;19996;-73
2022/07/21 08:25:34;;;;;;;;;;;21.60;84.00;;;;;;5030736;28;19932;-71
2022/07/21 08:28:02;;;;;;;;;;;21.70;83.70;;;;;;5016176;28;20255;-75
2022/07/21 08:30:30;;;;;;;;;;;21.80;83.70;;;;;;5018766;28;19921;-74
2022/07/21 08:32:59;;;;;;;;;;;21.90;83.50;;;;;;5001111;28;20364;-71
2022/07/21 08:35:27;;;;;;;;;;;22.00;82.70;;;;;;5017122;28;19922;-73
2022/07/21 08:37:59;;;;;;;;;;;22.10;82.10;;;;;;5017785;28;19921;-73
2022/07/21 08:40:28;;;;;;;;;;;22.20;81.80;;;;;;5016895;28;20355;-71
2022/07/21 08:42:56;;;;;;;;;;;22.20;81.40;;;;;;5005171;28;19921;-71
2022/07/21 08:45:24;;;;;;;;;;;22.20;80.60;;;;;;5018303;28;19921;-71
2022/07/21 08:47:52;;;;;;;;;;;22.30;80.60;;;;;;5016489;28;19989;-73
2022/07/21 08:50:22;;;;;;;;;;;22.30;80.60;;;;;;5033327;28;19921;-72
2022/07/21 08:52:49;;;;;;;;;;;22.20;81.00;;;;;;5000225;28;19925;-72
2022/07/21 08:55:28;;;;;;;;;;;22.40;81.00;;;;;;5016811;28;20352;-72
2022/07/21 08:57:55;;;;;;;;;;;22.40;80.20;;;;;;5017627;28;19932;-72
2022/07/21 09:00:23;;;;;;;;;;;22.40;80.70;;;;;;5022584;28;19932;-71
2022/07/21 09:03:07;;;;;;;;;;;22.60;80.00;;;;;;5017855;28;19929;-72
2022/07/21 09:05:35;;;;;;;;;;;22.70;79.90;;;;;;5017583;28;19952;-70
2022/07/21 09:08:05;;;;;;;;;;;22.80;79.50;;;;;;5016512;28;19928;-74
2022/07/21 09:10:32;;;;;;;;;;;22.80;79.20;;;;;;5000001;28;19932;-71
2022/07/21 09:13:01;;;;;;;;;;;22.90;79.60;;;;;;5017205;28;20039;-75
2022/07/21 09:15:31;;;;;;;;;;;22.90;79.20;;;;;;4999091;28;19928;-75
2022/07/21 09:18:07;;;;;;;;;;;23.00;79.30;;;;;;5016428;28;19922;-73
2022/07/21 09:20:39;;;;;;;;;;;23.00;78.90;;;;;;5027934;28;19932;-73
2022/07/21 09:23:09;;;;;;;;;;;23.10;78.90;;;;;;5003218;28;19932;-74
2022/07/21 09:25:50;;;;;;;;;;;23.10;78.90;;;;;;5037294;28;19928;-73
2022/07/21 09:28:23;;;;;;;;;;;23.20;78.60;;;;;;5017915;28;19932;-74
2022/07/21 09:31:00;;;;;;;;;;;23.30;78.20;;;;;;5025947;28;19928;-74
2022/07/21 09:33:31;;;;;;;;;;;23.40;77.70;;;;;;5003109;28;19921;-75
2022/07/21 09:36:02;;;;;;;;;;;23.40;78.00;;;;;;4992890;28;19925;-73
2022/07/21 09:38:31;;;;;;;;;;;23.40;77.00;;;;;;5017233;28;19921;-73
2022/07/21 09:41:09;;;;;;;;;;;23.30;77.10;;;;;;5033344;28;19921;-72
2022/07/21 09:43:42;;;;;;;;;;;23.20;76.60;;;;;;5035685;28;19921;-73
2022/07/21 09:46:11;;;;;;;;;;;23.20;78.80;;;;;;5035178;28;20336;-75
2022/07/21 09:48:40;;;;;;;;;;;23.10;78.80;;;;;;5034521;28;19921;-78
2022/07/21 09:51:24;;;;;;;;;;;22.90;79.00;;;;;;5052179;28;19921;-77
2022/07/21 09:54:05;;;;;;;;;;;22.80;79.30;;;;;;5050864;28;19979;-76
2022/07/21 09:56:33;;;;;;;;;;;22.70;79.20;;;;;;5036099;28;19944;-76
2022/07/21 09:59:02;;;;;;;;;;;22.70;79.60;;;;;;5018704;28;19921;-77
2022/07/21 10:01:30;;;;;;;;;;;22.60;79.10;;;;;;5034202;28;19951;-78
2022/07/21 10:03:59;;;;;;;;;;;22.80;79.10;;;;;;5036299;28;19932;-78
2022/07/21 10:06:28;;;;;;;;;;;22.80;78.70;;;;;;5036165;28;19932;-79
2022/07/21 10:08:57;;;;;;;;;;;22.80;78.70;;;;;;5035078;28;20348;-78
2022/07/21 10:11:25;;;;;;;;;;;22.90;78.30;;;;;;5051457;28;19940;-75
2022/07/21 10:13:56;;;;;;;;;;;22.60;78.40;;;;;;5034782;28;19925;-74
2022/07/21 10:16:24;;;;;;;;;;;22.90;77.80;;;;;;5035346;28;19921;-74
2022/07/21 10:19:10;;;;;;;;;;;23.00;78.70;;;;;;5035843;28;19921;-76
2022/07/21 10:21:57;;;;;;;;;;;23.00;78.80;;;;;;5033848;28;20401;-77
2022/07/21 10:24:27;;;;;;;;;;;23.10;77.50;;;;;;5034779;28;19921;-77
2022/07/21 10:27:05;;;;;;;;;;;23.00;77.60;;;;;;5051355;28;20267;-75
2022/07/21 10:29:48;;;;;;;;;;;23.10;78.40;;;;;;5034969;28;20240;-75
2022/07/21 10:32:16;;;;;;;;;;;23.10;77.70;;;;;;5018503;28;19932;-75
2022/07/21 10:34:44;;;;;;;;;;;23.20;77.20;;;;;;5031974;28;19921;-73
2022/07/21 10:37:31;;;;;;;;;;;23.20;77.20;;;;;;5053111;28;19921;-74
2022/07/21 10:39:58;;;;;;;;;;;23.20;77.10;;;;;;5052729;28;19921;-72
2022/07/21 10:42:26;;;;;;;;;;;23.20;77.50;;;;;;5045261;28;19928;-72
2022/07/21 10:44:54;;;;;;;;;;;23.20;76.90;;;;;;5053465;28;19927;-73
2022/07/21 10:47:30;;;;;;;;;;;23.30;76.60;;;;;;5050813;28;19925;-75
2022/07/21 10:50:07;;;;;;;;;;;23.40;76.70;;;;;;5038552;28;19921;-77
2022/07/21 10:52:34;;;;;;;;;;;23.70;76.20;;;;;;5053945;28;19920;-75
2022/07/21 10:55:11;;;;;;;;;;;23.80;76.20;;;;;;5035262;28;20279;-74
2022/07/21 10:57:40;;;;;;;;;;;23.90;75.70;;;;;;5016298;28;20270;-73
2022/07/21 11:00:17;;;;;;;;;;;24.10;73.90;;;;;;5033328;28;19925;-73
2022/07/21 11:02:52;;;;;;;;;;;24.30;74.10;;;;;;5034456;28;19927;-72
2022/07/21 11:05:20;;;;;;;;;;;24.50;74.60;;;;;;5034064;28;20340;-73
2022/07/21 11:08:06;;;;;;;;;;;24.60;72.80;;;;;;5034270;28;19928;-73
2022/07/21 11:10:35;;;;;;;;;;;24.70;73.00;;;;;;5034523;28;19940;-73
2022/07/21 11:13:05;;;;;;;;;;;24.80;72.80;;;;;;5034882;28;20144;-73
2022/07/21 11:15:53;;;;;;;;;;;25.10;71.40;;;;;;5031556;28;19921;-73
2022/07/21 11:18:22;;;;;;;;;;;25.20;71.40;;;;;;5035576;28;19921;-73
2022/07/21 11:21:09;;;;;;;;;;;25.30;71.30;;;;;;5032857;28;19925;-73
2022/07/21 11:23:38;;;;;;;;;;;25.30;70.40;;;;;;5035282;28;20386;-73
2022/07/21 11:26:06;;;;;;;;;;;25.40;71.10;;;;;;5034379;28;19932;-73
2022/07/21 11:28:34;;;;;;;;;;;25.40;70.40;;;;;;5033999;28;19921;-73
2022/07/21 11:31:21;;;;;;;;;;;25.40;70.80;;;;;;5035053;28;19944;-73
2022/07/21 11:33:49;;;;;;;;;;;25.50;70.40;;;;;;5033501;28;20367;-73
2022/07/21 11:36:24;;;;;;;;;;;25.50;69.90;;;;;;5034156;28;19932;-73
2022/07/21 11:38:59;;;;;;;;;;;25.50;70.10;;;;;;5034055;28;19921;-74
2022/07/21 11:41:27;;;;;;;;;;;25.60;70.30;;;;;;5049929;28;20347;-74
2022/07/21 11:43:54;;;;;;;;;;;25.60;70.50;;;;;;5034664;28;19988;-73
2022/07/21 11:46:22;;;;;;;;;;;25.60;70.20;;;;;;5035204;28;19921;-73
2022/07/21 11:49:03;;;;;;;;;;;25.60;70.80;;;;;;5032808;28;20255;-74
2022/07/21 11:51:31;;;;;;;;;;;25.60;70.90;;;;;;5035246;28;19921;-73
2022/07/21 11:53:58;;;;;;;;;;;25.60;70.80;;;;;;5033771;28;19928;-74
2022/07/21 11:56:26;;;;;;;;;;;25.50;70.20;;;;;;5034797;28;19928;-73
2022/07/21 11:59:07;;;;;;;;;;;25.40;70.40;;;;;;5050438;28;20269;-73
2022/07/21 12:01:47;;;;;;;;;;;25.40;70.60;;;;;;5032860;28;19921;-74
2022/07/21 12:04:25;;;;;;;;;;;25.20;70.30;;;;;;5034291;28;19928;-73
2022/07/21 12:06:54;;;;;;;;;;;25.40;71.10;;;;;;5039027;28;19952;-73
2022/07/21 12:09:21;;;;;;;;;;;25.40;70.70;;;;;;5053330;28;20262;-74
2022/07/21 12:11:49;;;;;;;;;;;25.40;70.30;;;;;;5021050;28;19924;-73
2022/07/21 12:14:18;;;;;;;;;;;25.60;70.30;;;;;;5037952;28;19925;-74
2022/07/21 12:17:03;;;;;;;;;;;25.80;70.20;;;;;;5038305;28;19909;-73
2022/07/21 12:19:31;;;;;;;;;;;25.90;69.80;;;;;;5037495;28;19928;-73
2022/07/21 12:21:59;;;;;;;;;;;26.00;69.40;;;;;;5036241;28;19920;-74
2022/07/21 12:24:45;;;;;;;;;;;25.90;69.10;;;;;;5020948;28;19932;-73
2022/07/21 12:27:12;;;;;;;;;;;26.10;68.80;;;;;;5037377;28;19928;-73
2022/07/21 12:29:40;;;;;;;;;;;26.30;68.70;;;;;;5037425;28;19928;-74
2022/07/21 12:32:08;;;;;;;;;;;26.30;68.50;;;;;;5037311;28;19936;-73
2022/07/21 12:34:49;;;;;;;;;;;26.40;68.70;;;;;;5036223;28;19925;-74
2022/07/21 12:37:17;;;;;;;;;;;26.40;68.50;;;;;;5021250;28;19925;-73
2022/07/21 12:40:05;;;;;;;;;;;26.40;68.50;;;;;;5051147;28;19921;-74
2022/07/21 12:42:35;;;;;;;;;;;26.40;68.20;;;;;;5036794;28;20248;-74
2022/07/21 12:45:16;;;;;;;;;;;26.30;68.00;;;;;;5038096;28;20279;-74
2022/07/21 12:48:04;;;;;;;;;;;26.50;68.10;;;;;;5036992;28;19921;-74
2022/07/21 12:50:31;;;;;;;;;;;26.50;67.70;;;;;;5037942;28;20336;-73
2022/07/21 12:52:58;;;;;;;;;;;26.50;68.00;;;;;;5036890;28;19932;-74
2022/07/21 12:55:26;;;;;;;;;;;26.70;68.50;;;;;;5036604;28;19921;-74
2022/07/21 12:57:53;;;;;;;;;;;26.40;67.70;;;;;;5036577;28;20282;-73
2022/07/21 13:00:28;;;;;;;;;;;26.30;68.00;;;;;;5036449;28;19924;-73
2022/07/21 13:02:56;;;;;;;;;;;26.30;67.80;;;;;;5036625;28;19921;-73
2022/07/21 13:05:24;;;;;;;;;;;26.30;68.30;;;;;;5020497;28;19921;-73
2022/07/21 13:07:52;;;;;;;;;;;26.50;68.40;;;;;;5035393;28;19936;-74
2022/07/21 13:10:19;;;;;;;;;;;26.50;67.70;;;;;;5020119;28;20366;-73
2022/07/21 13:12:47;;;;;;;;;;;26.50;67.40;;;;;;5019839;28;20279;-73
2022/07/21 13:15:15;;;;;;;;;;;26.40;67.90;;;;;;5018886;28;19928;-74
2022/07/21 13:17:43;;;;;;;;;;;26.40;67.90;;;;;;5036053;28;19943;-73
2022/07/21 13:20:10;;;;;;;;;;;26.30;67.70;;;;;;5036191;28;20267;-74
2022/07/21 13:22:38;;;;;;;;;;;26.10;67.50;;;;;;5036186;28;19924;-74
2022/07/21 13:25:06;;;;;;;;;;;25.90;67.90;;;;;;5036264;28;19925;-74
2022/07/21 13:27:34;;;;;;;;;;;25.80;68.50;;;;;;5035948;28;19921;-74
2022/07/21 13:30:03;;;;;;;;;;;25.80;68.70;;;;;;5036902;28;20356;-74
2022/07/21 13:32:34;;;;;;;;;;;25.70;68.50;;;;;;5036363;28;19928;-73
2022/07/21 13:35:03;;;;;;;;;;;25.80;68.50;;;;;;5035785;28;19921;-73
2022/07/21 13:37:50;;;;;;;;;;;25.80;68.80;;;;;;5036175;28;19921;-73
2022/07/21 13:40:17;;;;;;;;;;;25.70;68.90;;;;;;5036799;28;19927;-74
2022/07/21 13:43:05;;;;;;;;;;;25.80;68.70;;;;;;5035822;28;20356;-74
2022/07/21 13:45:52;;;;;;;;;;;25.80;69.10;;;;;;5036587;28;20354;-74
2022/07/21 13:48:20;;;;;;;;;;;25.70;68.70;;;;;;5034657;28;20343;-74
2022/07/21 13:50:47;;;;;;;;;;;25.60;69.00;;;;;;5035674;28;19921;-73
2022/07/21 13:53:15;;;;;;;;;;;25.60;68.90;;;;;;5052080;28;19921;-73
2022/07/21 13:55:42;;;;;;;;;;;25.60;69.20;;;;;;5035452;28;19932;-74
2022/07/21 13:58:10;;;;;;;;;;;25.60;69.00;;;;;;5036724;28;19920;-74
2022/07/21 14:00:38;;;;;;;;;;;25.50;69.60;;;;;;5050874;28;19932;-73
2022/07/21 14:03:10;;;;;;;;;;;25.40;68.90;;;;;;5036026;28;20359;-73
2022/07/21 14:05:38;;;;;;;;;;;25.30;68.90;;;;;;5036452;28;19921;-74
2022/07/21 14:08:06;;;;;;;;;;;25.30;69.60;;;;;;5035382;28;20282;-74
2022/07/21 14:10:33;;;;;;;;;;;25.20;69.60;;;;;;5036242;28;19921;-74
2022/07/21 14:13:00;;;;;;;;;;;25.20;69.60;;;;;;5035328;28;19936;-74
2022/07/21 14:15:28;;;;;;;;;;;25.10;69.40;;;;;;5034485;28;19928;-73
2022/07/21 14:17:55;;;;;;;;;;;25.10;69.70;;;;;;5035792;28;19921;-73
2022/07/21 14:20:24;;;;;;;;;;;25.00;69.80;;;;;;5035296;28;19921;-74
2022/07/21 14:22:53;;;;;;;;;;;25.00;69.80;;;;;;5036014;28;19921;-73
2022/07/21 14:25:22;;;;;;;;;;;25.00;70.00;;;;;;5035986;28;19921;-74
2022/07/21 14:27:51;;;;;;;;;;;25.00;70.40;;;;;;5033079;28;19921;-74
2022/07/21 14:30:22;;;;;;;;;;;24.90;70.50;;;;;;5036303;28;19921;-73
2022/07/21 14:32:49;;;;;;;;;;;24.90;70.40;;;;;;5035904;28;19925;-74